Time;durP1;ratioP1;P1;durP2;ratioP2;P2;SDS_P1;SDS_P2;PMS_P1;PMS_P2;Temp;Humidity;BMP_temperature;BMP_pressure;BME280_temperature;BME280_humidity;BME280_pressure;Samples;Min_cycle;Max_cycle;Signal;HPM_P1;HPM_P2
2021/12/21 00:00:14;;;;;;;1.33;1.15;;;;;;;-0.80;43.50;98461.16;3390111;29;20040;-72
2021/12/21 00:01:55;;;;;;;1.17;1.08;;;;;;;-0.83;43.85;98466.69;3390651;29;20044;-70
2021/12/21 00:03:36;;;;;;;3.65;1.23;;;;;;;-0.93;43.52;98451.09;3390530;29;20036;-71
2021/12/21 00:05:21;;;;;;;1.00;0.93;;;;;;;-0.94;43.86;98459.09;3390527;29;20044;-70
2021/12/21 00:07:02;;;;;;;2.90;1.33;;;;;;;-0.97;43.86;98465.44;3390105;29;20039;-71
2021/12/21 00:08:42;;;;;;;1.52;1.00;;;;;;;-1.00;43.55;98464.94;3390695;29;20396;-69
2021/12/21 00:10:26;;;;;;;1.20;1.10;;;;;;;-1.06;43.32;98461.09;3389922;29;20046;-70
2021/12/21 00:12:09;;;;;;;1.83;1.00;;;;;;;-1.12;43.14;98461.72;3390638;29;20080;-70
2021/12/21 00:17:44;;;;;;;1.88;1.00;;;;;;;-1.25;43.55;98466.50;3389610;29;20296;-69
2021/12/21 00:24:50;;;;;;;1.33;1.00;;;;;;;-1.43;43.30;98464.69;3388594;29;20044;-68
2021/12/21 00:26:31;;;;;;;1.83;1.15;;;;;;;-1.46;43.16;98469.41;3389583;29;20587;-68
2021/12/21 00:28:11;;;;;;;1.35;1.15;;;;;;;-1.50;43.12;98466.25;3375876;29;20051;-68
2021/12/21 00:29:52;;;;;;;3.53;1.27;;;;;;;-1.54;43.02;98473.56;3387206;29;20525;-68
2021/12/21 00:31:35;;;;;;;3.00;1.05;;;;;;;-1.58;43.29;98467.00;3389251;29;20043;-66
2021/12/21 00:33:17;;;;;;;1.48;1.38;;;;;;;-1.61;43.13;98467.28;3389711;29;20044;-68
2021/12/21 00:34:57;;;;;;;1.13;1.02;;;;;;;-1.64;43.23;98459.75;3389944;29;20127;-66
2021/12/21 00:36:38;;;;;;;1.20;1.10;;;;;;;-1.68;43.40;98455.78;3389391;29;20400;-69
2021/12/21 00:38:19;;;;;;;1.73;1.10;;;;;;;-1.71;43.13;98450.03;3389372;29;20036;-68
2021/12/21 00:40:00;;;;;;;3.63;1.23;;;;;;;-1.72;43.30;98466.69;3389933;29;20494;-67
2021/12/21 00:41:40;;;;;;;1.13;1.02;;;;;;;-1.76;43.43;98467.00;3391258;29;20508;-69
2021/12/21 00:43:21;;;;;;;1.05;0.98;;;;;;;-1.77;43.29;98473.16;3390044;29;20051;-68
2021/12/21 00:45:03;;;;;;;1.40;0.98;;;;;;;-1.71;43.20;98476.16;3389430;29;20040;-68
2021/12/21 00:46:44;;;;;;;1.27;0.82;;;;;;;-1.64;43.18;98477.22;3375922;29;20068;-71
2021/12/21 00:48:30;;;;;;;1.23;1.10;;;;;;;-1.61;42.99;98482.97;3387498;29;20460;-70
2021/12/21 00:50:16;;;;;;;1.65;1.00;;;;;;;-1.61;43.10;98469.91;3375344;29;20043;-70
2021/12/21 00:51:57;;;;;;;1.70;1.00;;;;;;;-1.67;43.13;98456.63;3388457;29;20040;-71
2021/12/21 00:53:39;;;;;;;2.17;1.05;;;;;;;-1.65;42.89;98473.78;3376690;29;20044;-71
2021/12/21 00:55:21;;;;;;;;;;;;;;;-1.56;43.14;98474.69;3388048;29;20043;-69
2021/12/21 00:57:04;;;;;;;3.05;1.20;;;;;;;-1.67;42.70;98472.31;3389386;29;20434;-70
2021/12/21 00:58:45;;;;;;;2.13;1.00;;;;;;;-1.73;42.77;98471.06;3376413;29;20045;-71
2021/12/21 01:00:26;;;;;;;11.75;1.20;;;;;;;-1.76;42.82;98471.38;3387488;29;20532;-70
2021/12/21 01:02:07;;;;;;;1.23;0.73;;;;;;;-1.83;42.70;98473.75;3390512;29;20048;-71
2021/12/21 01:03:51;;;;;;;1.27;1.17;;;;;;;-1.84;42.74;98476.50;3390684;29;20048;-70
2021/12/21 01:05:52;;;;;;;1.58;1.48;;;;;;;-1.86;42.66;98473.22;3390017;29;20411;-70
2021/12/21 01:07:38;;;;;;;1.42;0.90;;;;;;;-1.90;42.80;98466.66;3390008;29;20569;-70
2021/12/21 01:10:02;;;;;;;2.92;1.17;;;;;;;-1.92;42.92;98477.22;3376470;29;20049;-69
2021/12/21 01:12:11;;;;;;;1.27;1.13;;;;;;;-1.93;42.79;98480.00;3390334;29;20052;-71
2021/12/21 01:14:17;;;;;;;0.98;0.85;;;;;;;-1.98;42.47;98481.25;3387912;29;20056;-70
2021/12/21 01:20:10;;;;;;;1.65;1.08;;;;;;;-1.87;42.83;98476.81;3340201;29;20506;-72
2021/12/21 01:22:39;;;;;;;2.50;1.10;;;;;;;-1.83;42.54;98486.81;3390498;29;20048;-70
2021/12/21 01:26:08;;;;;;;1.30;1.20;;;;;;;-1.85;42.78;98496.56;3389856;29;20060;-71
2021/12/21 01:28:12;;;;;;;1.45;1.20;;;;;;;-1.88;42.45;98491.66;3375367;29;20041;-71
2021/12/21 01:30:12;;;;;;;1.83;1.65;;;;;;;-1.89;42.44;98494.41;3389947;29;20052;-70
2021/12/21 01:32:06;;;;;;;1.30;0.90;;;;;;;-2.00;42.81;98485.78;3376171;29;20044;-71
2021/12/21 01:34:01;;;;;;;2.60;1.10;;;;;;;-1.97;42.73;98497.72;3388723;29;20048;-71
2021/12/21 01:35:46;;;;;;;1.42;1.05;;;;;;;-2.02;42.66;98505.16;3390463;29;20127;-71
2021/12/21 01:41:09;;;;;;;1.25;0.90;;;;;;;-2.21;42.88;98495.63;3389634;29;20442;-71
2021/12/21 01:50:25;;;;;;;2.30;1.13;;;;;;;-2.09;42.73;98498.88;3389752;29;20130;-71
2021/12/21 01:52:14;;;;;;;1.35;0.90;;;;;;;-2.10;43.27;98494.63;3389773;29;20187;-72
2021/12/21 01:53:55;;;;;;;0.70;0.70;;;;;;;-2.08;42.95;98495.31;3388969;29;20063;-70
2021/12/21 01:55:36;;;;;;;2.00;1.00;;;;;;;-2.06;42.93;98503.81;3389768;29;20047;-70
2021/12/21 01:57:17;;;;;;;1.17;1.05;;;;;;;-2.04;42.89;98502.72;3389702;29;20062;-70
2021/12/21 01:58:58;;;;;;;1.30;1.15;;;;;;;-2.02;42.92;98499.94;3375137;29;20481;-71
2021/12/21 02:00:39;;;;;;;2.70;1.50;;;;;;;-2.00;43.23;98500.63;3386962;29;20040;-70
2021/12/21 02:02:21;;;;;;;1.60;1.00;;;;;;;-2.01;42.78;98501.63;3389708;29;20114;-70
2021/12/21 02:04:01;;;;;;;1.60;1.10;;;;;;;-1.99;42.74;98504.88;3389029;29;20591;-70
2021/12/21 02:05:42;;;;;;;0.75;0.75;;;;;;;-1.99;42.90;98512.72;3389602;29;20344;-71
2021/12/21 02:07:23;;;;;;;1.15;1.02;;;;;;;-2.00;42.98;98508.47;3389289;29;20134;-69
2021/12/21 02:09:04;;;;;;;0.70;0.70;;;;;;;-2.01;42.58;98507.66;3388775;29;20424;-70
2021/12/21 02:10:44;;;;;;;2.33;1.15;;;;;;;-1.99;42.92;98513.56;3389489;29;20587;-70
2021/12/21 02:12:25;;;;;;;1.02;0.82;;;;;;;-1.97;42.83;98516.00;3389029;29;20503;-70
2021/12/21 02:14:09;;;;;;;1.63;0.95;;;;;;;-1.97;42.48;98511.59;3374890;29;20040;-70
2021/12/21 02:15:49;;;;;;;2.38;1.30;;;;;;;-1.97;42.90;98510.78;3373198;29;20505;-70
2021/12/21 02:19:30;;;;;;;3.10;1.33;;;;;;;-1.98;42.41;98511.75;3389492;29;20194;-71
2021/12/21 02:21:27;;;;;;;1.60;1.20;;;;;;;-2.01;42.36;98512.88;3389687;29;20043;-71
2021/12/21 02:23:16;;;;;;;1.20;0.90;;;;;;;-2.07;42.32;98521.25;3388361;29;20048;-71
2021/12/21 02:25:18;;;;;;;2.72;1.10;;;;;;;-2.10;42.26;98511.09;3388790;29;20047;-71
2021/12/21 02:27:17;;;;;;;1.15;1.00;;;;;;;-2.13;42.46;98521.03;3377270;29;20490;-70
2021/12/21 02:29:11;;;;;;;1.23;0.95;;;;;;;-2.22;42.31;98531.34;3363474;29;20065;-70
2021/12/21 02:30:54;;;;;;;0.80;0.80;;;;;;;-2.26;42.47;98534.38;3363440;29;20053;-71
2021/12/21 02:32:35;;;;;;;2.05;1.02;;;;;;;-2.34;42.12;98534.28;3363465;29;20579;-71
2021/12/21 02:34:17;;;;;;;3.05;1.17;;;;;;;-2.41;42.16;98532.19;3364434;29;20048;-71
2021/12/21 02:35:58;;;;;;;1.23;0.90;;;;;;;-2.45;41.95;98527.44;3362228;29;20096;-71
2021/12/21 02:37:39;;;;;;;1.70;1.00;;;;;;;-2.48;42.38;98531.16;3359713;29;20066;-72
2021/12/21 02:39:21;;;;;;;1.27;0.80;;;;;;;-2.49;42.51;98539.09;3373464;29;20056;-72
2021/12/21 02:41:01;;;;;;;;;;;;;;;-2.41;42.38;98539.22;3376550;29;20044;-69
2021/12/21 02:42:42;;;;;;;2.70;1.00;;;;;;;-2.52;42.29;98545.41;3376292;29;19970;-71
2021/12/21 02:44:23;;;;;;;1.42;1.00;;;;;;;-2.54;42.21;98551.75;3376005;29;20180;-72
2021/12/21 02:46:05;;;;;;;1.05;0.98;;;;;;;-2.57;42.56;98549.41;3375557;29;20075;-72
2021/12/21 02:47:46;;;;;;;1.33;0.90;;;;;;;-2.60;42.60;98557.53;3376272;29;20040;-69
2021/12/21 02:49:27;;;;;;;2.63;1.13;;;;;;;-2.64;42.15;98549.94;3376199;29;20055;-71
2021/12/21 02:51:07;;;;;;;1.63;1.27;;;;;;;-2.72;42.58;98542.00;3376972;29;20040;-72
2021/12/21 02:52:48;;;;;;;1.98;0.90;;;;;;;-2.70;42.54;98563.56;3376565;29;20110;-71
2021/12/21 02:54:29;;;;;;;1.33;1.17;;;;;;;-2.72;42.60;98565.47;3375875;29;20041;-71
2021/12/21 02:56:10;;;;;;;2.35;0.98;;;;;;;-2.72;42.53;98565.47;3376382;29;20055;-72
2021/12/21 02:57:52;;;;;;;1.00;0.90;;;;;;;-2.69;42.32;98559.16;3375933;29;20633;-72
2021/12/21 02:59:34;;;;;;;0.60;0.60;;;;;;;-2.67;42.73;98565.88;3375814;29;20513;-70
2021/12/21 03:01:15;;;;;;;1.38;0.70;;;;;;;-2.63;42.61;98563.84;3349601;29;20056;-71
2021/12/21 03:02:56;;;;;;;1.15;1.10;;;;;;;-2.59;42.83;98564.38;3370866;29;20127;-73
2021/12/21 03:04:37;;;;;;;1.13;0.90;;;;;;;-2.56;42.83;98564.09;3374559;29;20044;-71
2021/12/21 03:08:22;;;;;;;0.90;0.90;;;;;;;-2.50;42.75;98559.16;3380767;29;20041;-71
2021/12/21 03:10:09;;;;;;;3.78;1.00;;;;;;;-2.46;42.50;98557.88;3375818;29;20047;-71
2021/12/21 03:12:08;;;;;;;3.53;1.00;;;;;;;-2.43;42.64;98556.78;3362337;29;20045;-71
2021/12/21 03:15:33;;;;;;;0.95;0.93;;;;;;;-2.38;42.29;98566.81;3376019;29;20072;-70
2021/12/21 03:17:13;;;;;;;1.88;1.17;;;;;;;-2.38;42.22;98566.81;3376019;29;20063;-71
2021/12/21 03:18:56;;;;;;;2.65;1.20;;;;;;;-2.42;42.49;98571.50;3375710;29;20048;-72
2021/12/21 03:20:37;;;;;;;1.13;1.02;;;;;;;-2.43;42.52;98581.13;3375906;29;20040;-71
2021/12/21 03:22:18;;;;;;;1.52;1.23;;;;;;;-2.44;42.30;98578.63;3376129;29;20052;-71
2021/12/21 03:23:59;;;;;;;2.47;1.80;;;;;;;-2.46;42.32;98567.50;3375992;29;20044;-71
2021/12/21 03:25:40;;;;;;;1.52;1.10;;;;;;;-2.44;42.16;98573.41;3374928;29;20455;-72
2021/12/21 03:27:20;;;;;;;1.20;1.10;;;;;;;-2.43;42.54;98572.44;3376295;29;20052;-72
2021/12/21 03:29:02;;;;;;;1.77;1.17;;;;;;;-2.39;42.80;98575.63;3361531;29;20060;-70
2021/12/21 03:30:43;;;;;;;1.60;1.08;;;;;;;-2.35;42.73;98583.03;3373567;29;20071;-71
2021/12/21 03:32:24;;;;;;;1.50;1.10;;;;;;;-2.32;42.48;98577.53;3375449;29;20048;-73
2021/12/21 03:34:05;;;;;;;2.45;1.38;;;;;;;-2.27;42.48;98582.28;3376239;29;20048;-71
2021/12/21 03:35:46;;;;;;;1.47;1.00;;;;;;;-2.23;42.66;98581.88;3362095;29;20180;-72
2021/12/21 03:37:26;;;;;;;1.17;1.08;;;;;;;-2.20;42.62;98588.59;3373106;29;20785;-71
2021/12/21 03:39:10;;;;;;;2.53;1.42;;;;;;;-2.22;42.24;98580.94;3375536;29;20037;-70
2021/12/21 03:40:53;;;;;;;2.20;1.65;;;;;;;-2.24;42.12;98577.63;3375855;29;20044;-70
2021/12/21 03:42:34;;;;;;;1.40;1.15;;;;;;;-2.22;42.08;98582.69;3376083;29;20047;-69
2021/12/21 03:44:17;;;;;;;1.27;1.15;;;;;;;-2.21;42.31;98584.38;3376199;29;20047;-70
2021/12/21 03:46:07;;;;;;;1.73;1.05;;;;;;;-2.21;42.54;98579.16;3375473;29;20052;-70
2021/12/21 03:47:48;;;;;;;1.40;1.10;;;;;;;-2.22;42.43;98587.91;3375788;29;20072;-69
2021/12/21 03:51:14;;;;;;;3.33;1.23;;;;;;;-2.22;42.26;98585.31;3376359;29;20131;-71
2021/12/21 03:52:55;;;;;;;1.98;1.40;;;;;;;-2.25;42.31;98585.59;3375762;29;20048;-70
2021/12/21 03:54:38;;;;;;;1.45;1.35;;;;;;;-2.23;42.30;98586.28;3375635;29;20041;-71
2021/12/21 03:58:08;;;;;;;1.77;1.20;;;;;;;-2.29;42.14;98572.03;3377204;29;20508;-70
2021/12/21 03:59:50;;;;;;;5.25;2.00;;;;;;;-2.30;42.22;98580.78;3378143;29;20048;-70
2021/12/21 04:01:30;;;;;;;1.75;1.00;;;;;;;-2.31;42.25;98578.34;3378491;29;20576;-72
2021/12/21 04:03:11;;;;;;;1.35;1.00;;;;;;;-2.32;41.90;98582.75;3378518;29;20049;-71
2021/12/21 04:04:53;;;;;;;1.67;0.98;;;;;;;-2.32;41.97;98576.69;3378372;29;20085;-70
2021/12/21 04:06:34;;;;;;;;;;;;;;;-2.22;42.37;98585.31;3378267;29;20041;-70
2021/12/21 04:08:15;;;;;;;1.35;1.23;;;;;;;-2.29;41.96;98584.25;3363634;29;19945;-70
2021/12/21 04:09:56;;;;;;;2.92;1.20;;;;;;;-2.31;41.54;98588.78;3361678;29;20041;-71
2021/12/21 04:11:38;;;;;;;3.13;1.33;;;;;;;-2.34;41.92;98584.66;3375471;29;20043;-71
2021/12/21 04:13:18;;;;;;;1.43;1.33;;;;;;;-2.36;41.83;98589.19;3377612;29;20037;-71
2021/12/21 04:15:03;;;;;;;1.75;1.65;;;;;;;-2.42;42.06;98584.53;3377928;29;20040;-68
2021/12/21 04:16:43;;;;;;;2.30;1.52;;;;;;;-2.42;41.67;98593.19;3377776;29;20528;-69
2021/12/21 04:18:24;;;;;;;1.27;1.05;;;;;;;-2.44;41.77;98595.09;3377394;29;20083;-69
2021/12/21 04:20:05;;;;;;;3.58;1.45;;;;;;;-2.47;41.63;98599.78;3378186;29;20047;-71
2021/12/21 04:21:46;;;;;;;3.50;1.20;;;;;;;-2.49;42.05;98602.53;3378104;29;20882;-72
2021/12/21 04:23:27;;;;;;;2.15;1.85;;;;;;;-2.53;41.80;98602.94;3377775;29;20044;-70
2021/12/21 04:25:08;;;;;;;1.77;1.65;;;;;;;-2.53;41.90;98609.00;3377582;29;20420;-71
2021/12/21 04:26:48;;;;;;;5.30;1.95;;;;;;;-2.57;41.83;98604.19;3388017;29;20564;-70
2021/12/21 04:28:29;;;;;;;2.72;2.42;;;;;;;-2.56;41.77;98611.03;3395471;29;20039;-70
2021/12/21 04:30:10;;;;;;;3.80;2.42;;;;;;;-2.59;41.78;98612.13;3390972;29;20419;-70
2021/12/21 04:31:51;;;;;;;3.78;2.92;;;;;;;-2.62;41.70;98617.63;3391124;29;20500;-71
2021/12/21 04:33:32;;;;;;;3.28;2.92;;;;;;;-2.66;41.96;98606.66;3390740;29;20040;-70
2021/12/21 04:35:18;;;;;;;3.67;3.03;;;;;;;-2.69;41.75;98612.13;3376995;29;20048;-70
2021/12/21 04:36:59;;;;;;;4.88;3.53;;;;;;;-2.71;41.82;98608.84;3388338;29;20500;-71
2021/12/21 04:38:44;;;;;;;3.72;3.10;;;;;;;-2.74;42.26;98603.88;3390445;29;20039;-71
2021/12/21 04:40:38;;;;;;;5.00;3.30;;;;;;;-2.75;42.18;98607.47;3376632;29;20053;-70
2021/12/21 04:42:19;;;;;;;6.57;3.72;;;;;;;-2.79;41.76;98606.09;3389852;29;20447;-68
2021/12/21 04:44:00;;;;;;;5.55;4.22;;;;;;;-2.82;42.20;98605.53;3390407;29;20055;-69
2021/12/21 04:45:41;;;;;;;5.05;3.85;;;;;;;-2.83;42.04;98611.72;3390415;29;20415;-71
2021/12/21 04:47:21;;;;;;;5.43;4.35;;;;;;;-2.85;42.34;98617.06;3390152;29;20083;-70
2021/12/21 04:49:02;;;;;;;6.35;5.28;;;;;;;-2.87;42.24;98614.59;3390010;29;20056;-71
2021/12/21 04:50:44;;;;;;;6.67;3.90;;;;;;;-2.84;42.27;98618.69;3390589;29;20506;-70
2021/12/21 04:52:25;;;;;;;4.53;4.10;;;;;;;-2.83;42.15;98617.75;3389863;29;20040;-70
2021/12/21 04:54:06;;;;;;;5.43;3.92;;;;;;;-2.83;42.00;98622.97;3375458;29;20063;-71
2021/12/21 04:55:47;;;;;;;4.45;4.03;;;;;;;-2.83;42.41;98624.75;3387415;29;20511;-72
2021/12/21 04:57:27;;;;;;;5.10;3.70;;;;;;;-2.86;42.38;98621.47;3375530;29;20131;-70
2021/12/21 04:59:08;;;;;;;4.70;3.70;;;;;;;-2.87;42.25;98629.41;3386759;29;20531;-71
2021/12/21 05:00:49;;;;;;;6.65;3.92;;;;;;;-2.87;42.15;98629.41;3389099;29;20186;-71
2021/12/21 05:02:30;;;;;;;3.45;2.90;;;;;;;-2.86;42.33;98631.06;3389802;29;20048;-71
2021/12/21 05:04:10;;;;;;;4.50;2.88;;;;;;;-2.90;42.22;98627.06;3390302;29;20087;-70
2021/12/21 05:05:52;;;;;;;4.15;2.70;;;;;;;-2.83;42.55;98625.59;3390048;29;20044;-70
2021/12/21 05:07:35;;;;;;;8.57;3.53;;;;;;;-2.78;42.61;98636.44;3375564;29;20170;-72
2021/12/21 05:09:24;;;;;;;7.35;3.17;;;;;;;-2.74;42.41;98634.34;3387617;29;20164;-72
2021/12/21 05:11:06;;;;;;;4.45;3.22;;;;;;;-2.73;42.27;98639.44;3375734;29;20055;-73
2021/12/21 05:12:47;;;;;;;5.15;3.28;;;;;;;-2.78;42.25;98633.00;3386906;29;20095;-72
2021/12/21 05:14:28;;;;;;;4.07;2.88;;;;;;;-2.73;42.17;98647.28;3390325;29;20502;-72
2021/12/21 05:16:11;;;;;;;3.55;3.00;;;;;;;-2.71;42.28;98645.38;3389873;29;20048;-68
2021/12/21 05:17:51;;;;;;;4.13;2.95;;;;;;;-2.72;42.49;98641.09;3388443;29;20055;-70
2021/12/21 05:19:32;;;;;;;4.72;3.13;;;;;;;-2.67;42.48;98651.94;3390112;29;20040;-68
2021/12/21 05:21:13;;;;;;;4.93;3.08;;;;;;;-2.65;42.39;98657.03;3390178;29;20051;-68
2021/12/21 05:22:54;;;;;;;4.40;2.80;;;;;;;-2.66;42.47;98650.16;3389434;29;20100;-71
2021/12/21 05:24:34;;;;;;;7.43;3.80;;;;;;;-2.66;42.40;98660.56;3390201;29;20415;-72
2021/12/21 05:26:15;;;;;;;5.38;3.78;;;;;;;-2.72;42.38;98648.91;3362577;29;20199;-73
2021/12/21 05:27:56;;;;;;;6.15;3.85;;;;;;;-2.71;42.06;98653.19;3384626;29;20113;-74
2021/12/21 05:29:37;;;;;;;4.32;2.72;;;;;;;-2.74;41.96;98655.22;3375914;29;20049;-72
2021/12/21 05:31:18;;;;;;;4.72;3.22;;;;;;;-2.77;42.28;98650.28;3373158;29;20088;-74
2021/12/21 05:32:59;;;;;;;6.50;3.47;;;;;;;-2.76;42.14;98660.59;3373394;29;20497;-73
2021/12/21 05:34:39;;;;;;;4.55;2.80;;;;;;;-2.78;41.87;98664.28;3386980;29;20052;-74
2021/12/21 05:36:21;;;;;;;4.95;2.50;;;;;;;-2.83;42.07;98666.47;3389092;29;20047;-73
2021/12/21 05:38:04;;;;;;;4.18;2.75;;;;;;;-2.89;41.90;98660.00;3389709;29;20142;-73
2021/12/21 05:40:09;;;;;;;5.07;2.50;;;;;;;-2.93;42.20;98662.06;3389717;29;20040;-71
2021/12/21 05:41:52;;;;;;;3.47;2.40;;;;;;;-2.96;42.01;98661.50;3384010;29;20035;-72
2021/12/21 05:43:32;;;;;;;2.67;1.83;;;;;;;-3.01;41.72;98664.50;3389496;29;20448;-74
2021/12/21 05:45:15;;;;;;;3.92;2.30;;;;;;;-3.03;41.94;98666.41;3375419;29;20048;-73
2021/12/21 05:46:56;;;;;;;4.38;2.13;;;;;;;-3.05;41.84;98672.72;3386807;29;20415;-72
2021/12/21 05:48:37;;;;;;;6.78;1.95;;;;;;;-3.10;41.94;98666.16;3389809;29;20047;-74
2021/12/21 05:50:19;;;;;;;5.93;3.60;;;;;;;-3.13;42.05;98666.38;3389495;29;20044;-73
2021/12/21 05:51:59;;;;;;;;;;;;;;;-3.02;42.32;98672.44;3389480;29;20044;-73
2021/12/21 05:53:41;;;;;;;4.57;2.13;;;;;;;-3.11;42.04;98664.47;3393601;29;19926;-72
2021/12/21 05:55:23;;;;;;;4.25;2.17;;;;;;;-3.12;41.80;98667.25;3389764;29;20047;-74
2021/12/21 05:57:04;;;;;;;1.73;1.60;;;;;;;-3.18;42.04;98663.34;3388991;29;20055;-73
2021/12/21 05:58:45;;;;;;;4.20;2.08;;;;;;;-3.18;41.99;98663.34;3389236;29;20048;-73
2021/12/21 06:00:31;;;;;;;3.85;1.73;;;;;;;-3.20;42.21;98667.06;3389619;29;20131;-73
2021/12/21 06:02:12;;;;;;;2.83;1.77;;;;;;;-3.23;42.34;98669.94;3375360;29;20207;-73
2021/12/21 06:03:53;;;;;;;2.92;1.67;;;;;;;-3.27;42.40;98671.97;3386355;29;20048;-71
2021/12/21 06:05:33;;;;;;;6.40;2.10;;;;;;;-3.31;41.92;98679.22;3374934;29;20409;-72
2021/12/21 06:07:14;;;;;;;1.67;1.25;;;;;;;-3.36;42.04;98680.56;3371979;29;20036;-73
2021/12/21 06:08:57;;;;;;;5.68;2.03;;;;;;;-3.41;42.12;98672.31;3386728;29;20054;-74
2021/12/21 06:10:41;;;;;;;3.50;1.48;;;;;;;-3.41;41.83;98674.94;3400267;29;20050;-73
2021/12/21 06:14:50;;;;;;;5.07;2.05;;;;;;;-3.44;42.19;98683.00;3400444;29;20134;-73
2021/12/21 06:24:29;;;;;;;4.55;2.25;;;;;;;-3.25;41.94;98688.31;3375508;29;20048;-73
2021/12/21 06:25:59;;;;;;;2.90;2.45;;;;;;;-3.22;42.05;98688.03;3387985;29;20476;-73
2021/12/21 06:27:40;;;;;;;4.85;2.92;;;;;;;-3.20;41.93;98691.34;3375617;29;20092;-73
2021/12/21 06:29:21;;;;;;;1.97;1.53;;;;;;;-3.21;42.07;98694.91;3362195;29;20132;-72
2021/12/21 06:31:03;;;;;;;2.65;1.90;;;;;;;-3.23;42.25;98688.97;3372102;29;20511;-73
2021/12/21 06:32:44;;;;;;;3.50;3.05;;;;;;;-3.23;42.30;98701.19;3375962;29;20068;-73
2021/12/21 06:34:25;;;;;;;2.80;2.55;;;;;;;-3.27;41.95;98698.03;3375828;29;20101;-73
2021/12/21 06:36:07;;;;;;;4.05;2.08;;;;;;;-3.28;42.02;98688.56;3375498;29;20500;-73
2021/12/21 06:37:47;;;;;;;3.92;2.33;;;;;;;-3.25;42.01;98701.34;3376460;29;20072;-74
2021/12/21 06:39:28;;;;;;;12.15;6.00;;;;;;;-3.26;41.83;98707.50;3375591;29;20424;-73
2021/12/21 06:41:09;;;;;;;7.18;3.15;;;;;;;-3.26;41.88;98707.50;3375242;29;20041;-71
2021/12/21 06:42:51;;;;;;;5.35;3.40;;;;;;;-3.26;41.74;98704.88;3374802;29;20061;-74
2021/12/21 06:44:33;;;;;;;4.93;2.85;;;;;;;-3.24;41.86;98708.19;3376206;29;20044;-74
2021/12/21 06:46:41;;;;;;;;;;;;;;;-3.14;41.78;98695.19;3376358;29;20071;-73
2021/12/21 06:52:17;;;;;;;4.15;2.65;;;;;;;-3.13;41.33;98704.66;3375266;29;20377;-73
2021/12/21 06:53:58;;;;;;;5.50;2.22;;;;;;;-3.15;41.63;98703.97;3375194;29;20076;-73
2021/12/21 06:55:39;;;;;;;4.90;2.22;;;;;;;-3.15;42.07;98710.03;3375144;29;20040;-73
2021/12/21 06:57:19;;;;;;;4.85;2.72;;;;;;;-3.19;42.01;98708.63;3361771;29;20041;-72
2021/12/21 06:59:00;;;;;;;5.03;2.47;;;;;;;-3.20;42.03;98717.41;3357792;29;20074;-72
2021/12/21 07:00:42;;;;;;;3.35;1.98;;;;;;;-3.22;42.06;98718.50;3372624;29;20048;-71
2021/12/21 07:02:23;;;;;;;3.70;1.75;;;;;;;-3.25;41.93;98719.56;3375659;29;20041;-71
2021/12/21 07:04:04;;;;;;;4.85;2.08;;;;;;;-3.29;41.84;98721.59;3375547;29;20067;-73
2021/12/21 07:05:46;;;;;;;2.25;1.98;;;;;;;-3.30;41.70;98721.75;3375476;29;20044;-73
2021/12/21 07:07:26;;;;;;;5.93;1.90;;;;;;;-3.33;41.74;98722.00;3361646;29;20149;-74
2021/12/21 07:09:15;;;;;;;3.90;1.83;;;;;;;-3.35;41.72;98723.91;3359581;29;20212;-72
2021/12/21 07:11:12;;;;;;;4.20;1.88;;;;;;;-3.37;41.99;98731.03;3375642;29;20135;-72
2021/12/21 07:18:52;;;;;;;2.30;1.67;;;;;;;-3.35;42.09;98724.75;3376058;29;20118;-72
2021/12/21 07:20:33;;;;;;;4.05;2.05;;;;;;;-3.25;41.80;98732.59;3374860;29;20101;-72
2021/12/21 07:22:13;;;;;;;3.85;2.08;;;;;;;-3.19;41.52;98739.06;3375824;29;20044;-72
2021/12/21 07:23:54;;;;;;;5.57;2.40;;;;;;;-3.17;41.48;98737.97;3383614;29;20540;-73
2021/12/21 07:25:35;;;;;;;4.68;2.22;;;;;;;-3.12;41.47;98733.22;3380190;29;20047;-72
2021/12/21 07:27:16;;;;;;;4.20;1.98;;;;;;;-3.08;41.52;98731.97;3374480;29;20061;-73
2021/12/21 07:28:56;;;;;;;4.85;2.47;;;;;;;-3.08;41.96;98726.75;3374808;29;20064;-71
2021/12/21 07:30:37;;;;;;;4.72;2.03;;;;;;;-3.05;41.87;98743.09;3375366;29;20040;-72
2021/12/21 07:32:18;;;;;;;4.22;2.00;;;;;;;-3.02;41.94;98742.81;3377485;29;20048;-73
2021/12/21 07:33:58;;;;;;;7.90;2.70;;;;;;;-3.02;41.79;98748.88;3377785;29;20041;-72
2021/12/21 07:35:39;;;;;;;5.95;2.25;;;;;;;-3.01;41.74;98744.50;3377187;29;20950;-72
2021/12/21 07:37:20;;;;;;;3.80;1.90;;;;;;;-3.02;41.83;98745.44;3364343;29;20100;-73
2021/12/21 07:39:04;;;;;;;5.05;2.30;;;;;;;-3.01;41.69;98752.31;3363700;29;20045;-72
2021/12/21 07:40:45;;;;;;;2.58;1.77;;;;;;;-3.01;42.15;98741.88;3375057;29;20467;-73
2021/12/21 07:42:25;;;;;;;2.03;1.60;;;;;;;-2.99;41.99;98751.22;3377251;29;20053;-71
2021/12/21 07:44:06;;;;;;;4.55;1.77;;;;;;;-2.97;41.70;98748.47;3379210;29;20037;-73
2021/12/21 07:45:47;;;;;;;6.72;2.10;;;;;;;-2.96;41.75;98750.13;3386827;29;20063;-74
2021/12/21 07:47:28;;;;;;;3.38;2.00;;;;;;;-2.96;42.03;98750.13;3378601;29;20052;-75
2021/12/21 07:49:09;;;;;;;2.97;1.77;;;;;;;-2.95;41.74;98741.34;3377959;29;20092;-73
2021/12/21 07:50:51;;;;;;;4.05;1.90;;;;;;;-2.97;41.70;98743.25;3377974;29;20062;-73
2021/12/21 07:52:32;;;;;;;;;;;;;;;-2.90;42.10;98740.00;3370436;29;20465;-75
2021/12/21 07:54:12;;;;;;;2.08;1.52;;;;;;;-3.00;41.68;98752.16;3378038;29;19923;-73
2021/12/21 07:55:53;;;;;;;3.35;2.03;;;;;;;-3.01;41.78;98757.53;3377210;29;20104;-73
2021/12/21 07:57:34;;;;;;;5.15;2.05;;;;;;;-3.09;41.67;98755.56;3377181;29;20071;-73
2021/12/21 07:59:15;;;;;;;4.75;2.22;;;;;;;-3.05;41.72;98761.34;3368594;29;20099;-73
2021/12/21 08:00:57;;;;;;;1.60;1.45;;;;;;;-3.07;41.96;98757.09;3374094;29;20539;-74
2021/12/21 08:02:40;;;;;;;3.45;2.17;;;;;;;-3.09;41.83;98756.38;3377171;29;20055;-73
2021/12/21 08:04:26;;;;;;;;;;;;;;;-2.97;42.10;98756.28;3378101;29;20060;-73
2021/12/21 08:06:08;;;;;;;4.53;1.83;;;;;;;-3.04;41.70;98758.63;3376878;29;20356;-73
2021/12/21 08:07:54;;;;;;;2.65;1.85;;;;;;;-3.05;41.48;98769.16;3362308;29;20116;-72
2021/12/21 08:09:40;;;;;;;5.88;1.77;;;;;;;-3.06;41.38;98770.94;3370329;29;20512;-72
2021/12/21 08:13:17;;;;;;;2.38;1.70;;;;;;;-3.02;41.96;98774.09;3377999;29;20041;-72
2021/12/21 08:14:58;;;;;;;10.63;1.80;;;;;;;-3.01;41.65;98767.94;3377487;29;20140;-72
2021/12/21 08:16:39;;;;;;;5.30;2.08;;;;;;;-3.01;41.91;98763.56;3377848;29;20504;-73
2021/12/21 08:18:19;;;;;;;4.40;1.58;;;;;;;-2.99;41.67;98759.03;3377422;29;20036;-73
2021/12/21 08:20:00;;;;;;;3.97;2.40;;;;;;;-2.96;41.86;98764.00;3363825;29;20049;-75
2021/12/21 08:21:41;;;;;;;2.83;2.03;;;;;;;-2.92;41.97;98762.78;3385611;29;20051;-73
2021/12/21 08:23:21;;;;;;;5.05;2.22;;;;;;;-2.90;41.92;98766.06;3390783;29;20040;-72
2021/12/21 08:25:03;;;;;;;4.13;2.10;;;;;;;-2.87;41.78;98764.97;3384853;29;20139;-73
2021/12/21 08:26:44;;;;;;;2.50;1.67;;;;;;;-2.83;41.46;98763.75;3385071;29;21184;-75
2021/12/21 08:28:25;;;;;;;42.92;3.17;;;;;;;-2.78;41.58;98756.38;3394165;29;20096;-73
2021/12/21 08:30:06;;;;;;;1.85;1.58;;;;;;;-2.76;41.77;98762.28;3390665;29;20086;-73
2021/12/21 08:31:47;;;;;;;8.18;2.00;;;;;;;-2.71;41.66;98759.25;3389810;29;20042;-73
2021/12/21 08:33:28;;;;;;;4.20;2.30;;;;;;;-2.69;41.70;98757.34;3389956;29;20036;-73
2021/12/21 08:35:12;;;;;;;3.17;2.13;;;;;;;-2.65;41.70;98758.75;3389604;29;20779;-74
2021/12/21 08:36:53;;;;;;;2.50;1.60;;;;;;;-2.64;41.43;98763.81;3389867;29;20047;-72
2021/12/21 08:38:37;;;;;;;2.00;1.80;;;;;;;-2.65;41.47;98753.53;3390316;29;20044;-75
2021/12/21 08:40:22;;;;;;;3.10;2.22;;;;;;;-2.65;41.60;98751.72;3400270;29;20083;-74
2021/12/21 08:42:08;;;;;;;3.90;2.35;;;;;;;-2.63;41.43;98755.03;3396990;29;20119;-72
2021/12/21 08:43:50;;;;;;;4.75;2.22;;;;;;;-2.59;41.50;98763.41;3388271;29;20051;-73
2021/12/21 08:45:31;;;;;;;2.80;2.20;;;;;;;-2.57;41.43;98758.88;3394480;29;20083;-72
2021/12/21 08:47:12;;;;;;;3.47;2.40;;;;;;;-2.55;41.34;98762.19;3389362;29;20047;-72
2021/12/21 08:48:53;;;;;;;2.38;1.73;;;;;;;-2.49;41.34;98760.81;3376373;29;20405;-72
2021/12/21 08:50:34;;;;;;;2.45;1.73;;;;;;;-2.47;41.43;98759.72;3387430;29;20048;-73
2021/12/21 08:52:15;;;;;;;2.42;2.00;;;;;;;-2.43;41.53;98758.50;3390458;29;20059;-74
2021/12/21 08:53:56;;;;;;;2.03;1.60;;;;;;;-2.38;41.32;98767.69;3389256;29;20411;-72
2021/12/21 08:55:37;;;;;;;3.53;1.90;;;;;;;-2.37;40.99;98757.16;3389727;29;20056;-73
2021/12/21 08:57:19;;;;;;;2.70;1.80;;;;;;;-2.34;40.98;98759.47;3389038;29;20078;-72
2021/12/21 08:59:00;;;;;;;5.25;1.95;;;;;;;-2.34;40.97;98756.06;3384450;29;20119;-72
2021/12/21 09:00:43;;;;;;;2.00;1.65;;;;;;;-2.34;40.87;98761.28;3390277;29;20055;-71
2021/12/21 09:02:24;;;;;;;4.65;1.95;;;;;;;-2.33;41.06;98758.50;3389596;29;20392;-73